sensor_id;sensor_type;location;lat;lon;timestamp;temperature;humidity
37910;DHT22;23741;49.446;8.754;2023-03-14T00:03:10;14.70;65.70
37910;DHT22;23741;49.446;8.754;2023-03-14T00:05:12;14.70;65.70
37910;DHT22;23741;49.446;8.754;2023-03-14T00:07:13;14.70;65.70
37910;DHT22;23741;49.446;8.754;2023-03-14T00:09:16;14.70;65.70
37910;DHT22;23741;49.446;8.754;2023-03-14T00:11:18;14.70;65.80
37910;DHT22;23741;49.446;8.754;2023-03-14T00:13:20;14.70;65.80
37910;DHT22;23741;49.446;8.754;2023-03-14T00:15:26;14.70;65.90
37910;DHT22;23741;49.446;8.754;2023-03-14T00:17:27;14.70;65.90
37910;DHT22;23741;49.446;8.754;2023-03-14T00:19:29;14.70;65.80
37910;DHT22;23741;49.446;8.754;2023-03-14T00:21:31;14.70;65.70
37910;DHT22;23741;49.446;8.754;2023-03-14T00:23:33;14.70;65.50
37910;DHT22;23741;49.446;8.754;2023-03-14T00:25:35;14.70;65.30
37910;DHT22;23741;49.446;8.754;2023-03-14T00:27:37;14.70;65.40
37910;DHT22;23741;49.446;8.754;2023-03-14T00:29:39;14.70;65.40
37910;DHT22;23741;49.446;8.754;2023-03-14T00:31:41;14.70;65.30
37910;DHT22;23741;49.446;8.754;2023-03-14T00:33:43;14.70;65.30
37910;DHT22;23741;49.446;8.754;2023-03-14T00:35:55;14.70;65.40
37910;DHT22;23741;49.446;8.754;2023-03-14T00:37:57;14.70;65.30
37910;DHT22;23741;49.446;8.754;2023-03-14T00:39:59;14.70;65.50
37910;DHT22;23741;49.446;8.754;2023-03-14T00:42:01;14.60;65.30
37910;DHT22;23741;49.446;8.754;2023-03-14T00:44:03;14.70;65.50
37910;DHT22;23741;49.446;8.754;2023-03-14T00:46:05;14.60;65.50
37910;DHT22;23741;49.446;8.754;2023-03-14T00:48:06;14.60;65.50
37910;DHT22;23741;49.446;8.754;2023-03-14T00:50:08;14.70;65.50
37910;DHT22;23741;49.446;8.754;2023-03-14T00:52:10;14.70;65.50
37910;DHT22;23741;49.446;8.754;2023-03-14T00:54:12;14.70;65.40
37910;DHT22;23741;49.446;8.754;2023-03-14T00:56:13;14.60;65.30
37910;DHT22;23741;49.446;8.754;2023-03-14T00:58:16;14.60;65.40
37910;DHT22;23741;49.446;8.754;2023-03-14T01:00:18;14.60;65.20
37910;DHT22;23741;49.446;8.754;2023-03-14T01:02:20;14.70;65.30
37910;DHT22;23741;49.446;8.754;2023-03-14T01:04:23;14.60;65.20
37910;DHT22;23741;49.446;8.754;2023-03-14T01:06:25;14.80;65.30
37910;DHT22;23741;49.446;8.754;2023-03-14T01:08:27;14.70;65.10
37910;DHT22;23741;49.446;8.754;2023-03-14T01:10:29;14.70;65.10
37910;DHT22;23741;49.446;8.754;2023-03-14T01:12:32;14.60;65.00
37910;DHT22;23741;49.446;8.754;2023-03-14T01:14:34;14.60;65.10
37910;DHT22;23741;49.446;8.754;2023-03-14T01:16:35;14.70;65.30
37910;DHT22;23741;49.446;8.754;2023-03-14T01:18:38;14.70;65.30
37910;DHT22;23741;49.446;8.754;2023-03-14T01:20:40;14.60;65.20
37910;DHT22;23741;49.446;8.754;2023-03-14T01:22:42;14.60;65.00
37910;DHT22;23741;49.446;8.754;2023-03-14T01:24:44;14.70;65.00
37910;DHT22;23741;49.446;8.754;2023-03-14T01:26:45;14.70;64.80
37910;DHT22;23741;49.446;8.754;2023-03-14T01:28:48;14.60;64.70
37910;DHT22;23741;49.446;8.754;2023-03-14T01:30:51;14.60;65.20
37910;DHT22;23741;49.446;8.754;2023-03-14T01:32:52;14.70;64.80
37910;DHT22;23741;49.446;8.754;2023-03-14T01:34:54;14.70;65.00
37910;DHT22;23741;49.446;8.754;2023-03-14T01:36:56;14.60;65.40
37910;DHT22;23741;49.446;8.754;2023-03-14T01:38:58;14.70;65.10
37910;DHT22;23741;49.446;8.754;2023-03-14T01:41:00;14.60;65.00
37910;DHT22;23741;49.446;8.754;2023-03-14T01:43:06;14.60;64.70
37910;DHT22;23741;49.446;8.754;2023-03-14T01:47:34;14.60;65.20
37910;DHT22;23741;49.446;8.754;2023-03-14T01:49:36;14.50;64.80
37910;DHT22;23741;49.446;8.754;2023-03-14T01:53:45;14.60;65.10
37910;DHT22;23741;49.446;8.754;2023-03-14T01:55:48;14.60;65.30
37910;DHT22;23741;49.446;8.754;2023-03-14T01:57:51;14.60;65.40
37910;DHT22;23741;49.446;8.754;2023-03-14T01:59:59;14.60;65.40
37910;DHT22;23741;49.446;8.754;2023-03-14T02:02:03;14.60;65.30
37910;DHT22;23741;49.446;8.754;2023-03-14T02:04:07;14.60;65.50
37910;DHT22;23741;49.446;8.754;2023-03-14T02:06:10;14.60;65.50
37910;DHT22;23741;49.446;8.754;2023-03-14T02:08:16;14.60;65.50
37910;DHT22;23741;49.446;8.754;2023-03-14T02:10:24;14.60;65.70
37910;DHT22;23741;49.446;8.754;2023-03-14T02:12:27;14.60;65.30
37910;DHT22;23741;49.446;8.754;2023-03-14T02:14:51;14.60;65.60
37910;DHT22;23741;49.446;8.754;2023-03-14T02:16:58;14.60;65.50
37910;DHT22;23741;49.446;8.754;2023-03-14T02:19:24;14.60;65.40
37910;DHT22;23741;49.446;8.754;2023-03-14T02:23:51;14.60;65.30
37910;DHT22;23741;49.446;8.754;2023-03-14T02:26:06;14.60;65.20
37910;DHT22;23741;49.446;8.754;2023-03-14T02:28:10;14.60;65.90
37910;DHT22;23741;49.446;8.754;2023-03-14T02:30:31;14.50;65.80
37910;DHT22;23741;49.446;8.754;2023-03-14T02:32:34;14.50;65.30
37910;DHT22;23741;49.446;8.754;2023-03-14T02:34:37;14.50;65.50
37910;DHT22;23741;49.446;8.754;2023-03-14T02:36:39;14.50;65.50
37910;DHT22;23741;49.446;8.754;2023-03-14T02:38:46;14.50;65.50
37910;DHT22;23741;49.446;8.754;2023-03-14T02:40:49;14.50;65.70
37910;DHT22;23741;49.446;8.754;2023-03-14T02:42:51;14.50;65.80
37910;DHT22;23741;49.446;8.754;2023-03-14T02:45:01;14.50;65.80
37910;DHT22;23741;49.446;8.754;2023-03-14T02:47:03;14.50;65.70
37910;DHT22;23741;49.446;8.754;2023-03-14T02:49:15;14.50;65.60
37910;DHT22;23741;49.446;8.754;2023-03-14T02:51:18;14.50;65.80
37910;DHT22;23741;49.446;8.754;2023-03-14T02:53:23;14.40;65.90
37910;DHT22;23741;49.446;8.754;2023-03-14T02:55:27;14.40;65.90
37910;DHT22;23741;49.446;8.754;2023-03-14T02:57:32;14.40;66.10
37910;DHT22;23741;49.446;8.754;2023-03-14T02:59:34;14.40;66.00
37910;DHT22;23741;49.446;8.754;2023-03-14T03:01:43;14.40;66.00
37910;DHT22;23741;49.446;8.754;2023-03-14T03:03:44;14.40;65.80
37910;DHT22;23741;49.446;8.754;2023-03-14T03:05:50;14.40;65.90
37910;DHT22;23741;49.446;8.754;2023-03-14T03:07:52;14.40;65.80
37910;DHT22;23741;49.446;8.754;2023-03-14T03:09:54;14.40;65.70
37910;DHT22;23741;49.446;8.754;2023-03-14T03:11:56;14.40;65.70
37910;DHT22;23741;49.446;8.754;2023-03-14T03:14:00;14.40;65.90
37910;DHT22;23741;49.446;8.754;2023-03-14T03:16:03;14.40;66.00
37910;DHT22;23741;49.446;8.754;2023-03-14T03:18:04;14.40;66.00
37910;DHT22;23741;49.446;8.754;2023-03-14T03:20:06;14.40;65.70
37910;DHT22;23741;49.446;8.754;2023-03-14T03:22:10;14.40;65.60
37910;DHT22;23741;49.446;8.754;2023-03-14T03:24:14;14.40;65.80
37910;DHT22;23741;49.446;8.754;2023-03-14T03:26:16;14.40;65.80
37910;DHT22;23741;49.446;8.754;2023-03-14T03:28:18;14.40;66.00
37910;DHT22;23741;49.446;8.754;2023-03-14T03:30:20;14.40;66.00
37910;DHT22;23741;49.446;8.754;2023-03-14T03:32:22;14.40;65.90
37910;DHT22;23741;49.446;8.754;2023-03-14T03:34:24;14.40;66.20
37910;DHT22;23741;49.446;8.754;2023-03-14T03:36:27;14.40;66.20
37910;DHT22;23741;49.446;8.754;2023-03-14T03:38:29;14.40;66.00
37910;DHT22;23741;49.446;8.754;2023-03-14T03:40:32;14.40;66.10
37910;DHT22;23741;49.446;8.754;2023-03-14T03:42:35;14.40;66.20
37910;DHT22;23741;49.446;8.754;2023-03-14T03:44:38;14.40;65.90
37910;DHT22;23741;49.446;8.754;2023-03-14T03:46:39;14.40;66.00
37910;DHT22;23741;49.446;8.754;2023-03-14T03:48:42;14.40;65.90
37910;DHT22;23741;49.446;8.754;2023-03-14T03:50:47;14.40;65.70
37910;DHT22;23741;49.446;8.754;2023-03-14T03:52:52;14.40;65.70
37910;DHT22;23741;49.446;8.754;2023-03-14T03:54:54;14.30;65.60
37910;DHT22;23741;49.446;8.754;2023-03-14T03:56:55;14.30;65.50
37910;DHT22;23741;49.446;8.754;2023-03-14T03:58:57;14.30;65.60
37910;DHT22;23741;49.446;8.754;2023-03-14T04:00:59;14.30;65.40
37910;DHT22;23741;49.446;8.754;2023-03-14T04:03:00;14.30;65.50
37910;DHT22;23741;49.446;8.754;2023-03-14T04:05:03;14.30;65.60
37910;DHT22;23741;49.446;8.754;2023-03-14T04:07:04;14.30;65.40
37910;DHT22;23741;49.446;8.754;2023-03-14T04:09:08;14.30;65.40
37910;DHT22;23741;49.446;8.754;2023-03-14T04:11:17;14.30;65.40
37910;DHT22;23741;49.446;8.754;2023-03-14T04:13:35;14.30;65.40
37910;DHT22;23741;49.446;8.754;2023-03-14T04:15:37;14.30;65.20
37910;DHT22;23741;49.446;8.754;2023-03-14T04:17:48;14.30;65.60
37910;DHT22;23741;49.446;8.754;2023-03-14T04:19:50;14.30;65.30
37910;DHT22;23741;49.446;8.754;2023-03-14T04:21:56;14.30;65.40
37910;DHT22;23741;49.446;8.754;2023-03-14T04:24:02;14.40;65.40
37910;DHT22;23741;49.446;8.754;2023-03-14T04:26:06;14.30;65.30
37910;DHT22;23741;49.446;8.754;2023-03-14T04:28:08;14.20;65.20
37910;DHT22;23741;49.446;8.754;2023-03-14T04:30:10;14.20;65.20
37910;DHT22;23741;49.446;8.754;2023-03-14T04:32:24;14.30;65.20
37910;DHT22;23741;49.446;8.754;2023-03-14T04:34:25;14.20;65.00
37910;DHT22;23741;49.446;8.754;2023-03-14T04:36:29;14.20;65.00
37910;DHT22;23741;49.446;8.754;2023-03-14T04:38:36;14.30;65.10
37910;DHT22;23741;49.446;8.754;2023-03-14T04:40:39;14.20;64.90
37910;DHT22;23741;49.446;8.754;2023-03-14T04:42:41;14.20;64.90
37910;DHT22;23741;49.446;8.754;2023-03-14T04:44:43;14.20;64.90
37910;DHT22;23741;49.446;8.754;2023-03-14T04:46:47;14.20;64.90
37910;DHT22;23741;49.446;8.754;2023-03-14T04:48:48;14.20;64.90
37910;DHT22;23741;49.446;8.754;2023-03-14T04:50:52;14.20;64.80
37910;DHT22;23741;49.446;8.754;2023-03-14T04:52:54;14.20;64.80
37910;DHT22;23741;49.446;8.754;2023-03-14T04:54:56;14.20;64.80
37910;DHT22;23741;49.446;8.754;2023-03-14T04:57:00;14.20;64.80
37910;DHT22;23741;49.446;8.754;2023-03-14T04:59:04;14.20;64.70
37910;DHT22;23741;49.446;8.754;2023-03-14T05:01:08;14.20;64.80
37910;DHT22;23741;49.446;8.754;2023-03-14T05:03:33;14.10;64.70
37910;DHT22;23741;49.446;8.754;2023-03-14T05:06:09;14.20;64.80
37910;DHT22;23741;49.446;8.754;2023-03-14T05:08:11;14.20;64.70
37910;DHT22;23741;49.446;8.754;2023-03-14T05:10:32;14.20;64.70
37910;DHT22;23741;49.446;8.754;2023-03-14T05:12:57;14.20;64.70
37910;DHT22;23741;49.446;8.754;2023-03-14T05:15:17;14.10;64.70
37910;DHT22;23741;49.446;8.754;2023-03-14T05:17:44;14.10;64.60
37910;DHT22;23741;49.446;8.754;2023-03-14T05:20:03;14.10;64.40
37910;DHT22;23741;49.446;8.754;2023-03-14T05:22:25;14.20;64.50
37910;DHT22;23741;49.446;8.754;2023-03-14T05:24:37;14.20;64.40
37910;DHT22;23741;49.446;8.754;2023-03-14T05:26:47;14.10;64.30
37910;DHT22;23741;49.446;8.754;2023-03-14T05:29:08;14.10;64.30
37910;DHT22;23741;49.446;8.754;2023-03-14T05:31:19;14.10;64.30
37910;DHT22;23741;49.446;8.754;2023-03-14T05:33:41;14.10;64.20
37910;DHT22;23741;49.446;8.754;2023-03-14T05:36:04;14.10;64.20
37910;DHT22;23741;49.446;8.754;2023-03-14T05:38:25;14.10;64.30
37910;DHT22;23741;49.446;8.754;2023-03-14T05:40:41;14.10;64.20
37910;DHT22;23741;49.446;8.754;2023-03-14T05:42:52;14.10;64.20
37910;DHT22;23741;49.446;8.754;2023-03-14T05:45:12;14.10;64.10
37910;DHT22;23741;49.446;8.754;2023-03-14T05:47:36;14.10;64.00
37910;DHT22;23741;49.446;8.754;2023-03-14T05:50:11;14.10;64.00
37910;DHT22;23741;49.446;8.754;2023-03-14T05:52:35;14.10;64.00
37910;DHT22;23741;49.446;8.754;2023-03-14T05:54:37;14.10;63.90
37910;DHT22;23741;49.446;8.754;2023-03-14T05:56:51;14.00;63.90
37910;DHT22;23741;49.446;8.754;2023-03-14T05:59:10;14.00;63.90
37910;DHT22;23741;49.446;8.754;2023-03-14T06:01:44;14.00;64.00
37910;DHT22;23741;49.446;8.754;2023-03-14T06:03:54;14.10;64.00
37910;DHT22;23741;49.446;8.754;2023-03-14T06:05:55;14.00;63.90
37910;DHT22;23741;49.446;8.754;2023-03-14T06:07:58;14.00;64.00
37910;DHT22;23741;49.446;8.754;2023-03-14T06:10:02;14.00;64.00
37910;DHT22;23741;49.446;8.754;2023-03-14T06:12:06;14.00;64.00
37910;DHT22;23741;49.446;8.754;2023-03-14T06:14:14;14.00;63.90
37910;DHT22;23741;49.446;8.754;2023-03-14T06:16:18;14.00;64.00
37910;DHT22;23741;49.446;8.754;2023-03-14T06:18:20;14.10;64.00
37910;DHT22;23741;49.446;8.754;2023-03-14T06:20:22;14.10;64.00
37910;DHT22;23741;49.446;8.754;2023-03-14T06:22:24;14.10;64.00
37910;DHT22;23741;49.446;8.754;2023-03-14T06:24:27;14.10;64.00
37910;DHT22;23741;49.446;8.754;2023-03-14T06:26:29;14.10;64.00
37910;DHT22;23741;49.446;8.754;2023-03-14T06:28:31;14.10;64.00
37910;DHT22;23741;49.446;8.754;2023-03-14T06:30:35;14.10;64.00
37910;DHT22;23741;49.446;8.754;2023-03-14T06:32:36;14.10;64.00
37910;DHT22;23741;49.446;8.754;2023-03-14T06:34:42;14.10;64.00
37910;DHT22;23741;49.446;8.754;2023-03-14T06:36:44;14.10;64.00
37910;DHT22;23741;49.446;8.754;2023-03-14T06:38:46;14.10;64.00
37910;DHT22;23741;49.446;8.754;2023-03-14T06:40:48;14.10;64.00
37910;DHT22;23741;49.446;8.754;2023-03-14T06:43:00;14.10;64.00
37910;DHT22;23741;49.446;8.754;2023-03-14T06:45:04;14.10;64.00
37910;DHT22;23741;49.446;8.754;2023-03-14T06:47:06;14.20;64.00
37910;DHT22;23741;49.446;8.754;2023-03-14T06:49:09;14.20;64.00
37910;DHT22;23741;49.446;8.754;2023-03-14T06:51:10;14.20;63.90
37910;DHT22;23741;49.446;8.754;2023-03-14T06:53:12;14.20;63.90
37910;DHT22;23741;49.446;8.754;2023-03-14T06:55:17;14.20;63.80
37910;DHT22;23741;49.446;8.754;2023-03-14T06:57:21;14.20;63.80
37910;DHT22;23741;49.446;8.754;2023-03-14T06:59:23;14.20;63.80
37910;DHT22;23741;49.446;8.754;2023-03-14T07:01:26;14.20;63.80
37910;DHT22;23741;49.446;8.754;2023-03-14T07:03:34;14.20;63.70
37910;DHT22;23741;49.446;8.754;2023-03-14T07:05:38;14.20;63.80
37910;DHT22;23741;49.446;8.754;2023-03-14T07:07:42;14.20;63.80
37910;DHT22;23741;49.446;8.754;2023-03-14T07:09:43;14.20;63.80
37910;DHT22;23741;49.446;8.754;2023-03-14T07:11:45;14.10;63.60
37910;DHT22;23741;49.446;8.754;2023-03-14T07:13:47;14.10;63.70
37910;DHT22;23741;49.446;8.754;2023-03-14T07:15:49;14.10;63.70
37910;DHT22;23741;49.446;8.754;2023-03-14T07:17:51;14.10;63.50
37910;DHT22;23741;49.446;8.754;2023-03-14T07:19:55;14.10;63.60
37910;DHT22;23741;49.446;8.754;2023-03-14T07:21:58;14.10;63.60
37910;DHT22;23741;49.446;8.754;2023-03-14T07:24:01;14.10;63.60
37910;DHT22;23741;49.446;8.754;2023-03-14T07:26:05;14.10;63.60
37910;DHT22;23741;49.446;8.754;2023-03-14T07:28:09;14.10;63.70
37910;DHT22;23741;49.446;8.754;2023-03-14T07:30:13;14.10;63.60
37910;DHT22;23741;49.446;8.754;2023-03-14T07:32:15;14.10;63.60
37910;DHT22;23741;49.446;8.754;2023-03-14T07:34:17;14.10;63.60
37910;DHT22;23741;49.446;8.754;2023-03-14T07:36:20;14.10;63.60
37910;DHT22;23741;49.446;8.754;2023-03-14T07:38:22;14.10;63.60
37910;DHT22;23741;49.446;8.754;2023-03-14T07:40:41;14.10;63.60
37910;DHT22;23741;49.446;8.754;2023-03-14T07:42:43;14.10;63.70
37910;DHT22;23741;49.446;8.754;2023-03-14T07:44:50;14.10;63.70
37910;DHT22;23741;49.446;8.754;2023-03-14T07:46:51;14.10;63.70
37910;DHT22;23741;49.446;8.754;2023-03-14T07:48:53;14.10;63.80
37910;DHT22;23741;49.446;8.754;2023-03-14T07:50:55;14.10;63.80
37910;DHT22;23741;49.446;8.754;2023-03-14T07:52:57;14.00;63.70
37910;DHT22;23741;49.446;8.754;2023-03-14T07:54:58;14.10;63.80
37910;DHT22;23741;49.446;8.754;2023-03-14T07:57:00;14.00;63.80
37910;DHT22;23741;49.446;8.754;2023-03-14T07:59:02;14.00;63.90
37910;DHT22;23741;49.446;8.754;2023-03-14T08:01:05;14.00;64.00
37910;DHT22;23741;49.446;8.754;2023-03-14T08:03:06;14.00;63.90
37910;DHT22;23741;49.446;8.754;2023-03-14T08:05:08;14.00;64.00
37910;DHT22;23741;49.446;8.754;2023-03-14T08:07:10;14.10;64.10
37910;DHT22;23741;49.446;8.754;2023-03-14T08:09:12;14.00;64.10
37910;DHT22;23741;49.446;8.754;2023-03-14T08:11:14;14.00;64.00
37910;DHT22;23741;49.446;8.754;2023-03-14T08:13:16;14.00;64.00
37910;DHT22;23741;49.446;8.754;2023-03-14T08:15:18;14.10;64.20
37910;DHT22;23741;49.446;8.754;2023-03-14T08:17:19;14.10;64.20
37910;DHT22;23741;49.446;8.754;2023-03-14T08:19:21;14.10;64.20
37910;DHT22;23741;49.446;8.754;2023-03-14T08:21:23;14.10;64.20
37910;DHT22;23741;49.446;8.754;2023-03-14T08:23:24;14.10;64.20
37910;DHT22;23741;49.446;8.754;2023-03-14T08:25:26;14.10;64.10
37910;DHT22;23741;49.446;8.754;2023-03-14T08:27:28;14.10;64.30
37910;DHT22;23741;49.446;8.754;2023-03-14T08:29:30;14.10;64.30
37910;DHT22;23741;49.446;8.754;2023-03-14T08:31:32;14.10;64.30
37910;DHT22;23741;49.446;8.754;2023-03-14T08:33:34;14.10;64.30
37910;DHT22;23741;49.446;8.754;2023-03-14T08:35:37;14.10;64.20
37910;DHT22;23741;49.446;8.754;2023-03-14T08:37:39;14.10;64.20
37910;DHT22;23741;49.446;8.754;2023-03-14T08:39:41;14.20;64.20
37910;DHT22;23741;49.446;8.754;2023-03-14T08:41:42;14.10;64.10
37910;DHT22;23741;49.446;8.754;2023-03-14T08:43:45;14.10;64.20
37910;DHT22;23741;49.446;8.754;2023-03-14T08:45:47;14.10;64.10
37910;DHT22;23741;49.446;8.754;2023-03-14T08:47:49;14.20;64.20
37910;DHT22;23741;49.446;8.754;2023-03-14T08:49:50;14.20;64.20
37910;DHT22;23741;49.446;8.754;2023-03-14T08:51:52;14.20;64.10
37910;DHT22;23741;49.446;8.754;2023-03-14T08:53:54;14.20;64.10
37910;DHT22;23741;49.446;8.754;2023-03-14T08:55:56;14.20;64.10
37910;DHT22;23741;49.446;8.754;2023-03-14T08:57:57;14.20;64.10
37910;DHT22;23741;49.446;8.754;2023-03-14T08:59:59;14.20;64.10
37910;DHT22;23741;49.446;8.754;2023-03-14T09:02:01;14.20;64.10
37910;DHT22;23741;49.446;8.754;2023-03-14T09:04:05;14.20;64.10
37910;DHT22;23741;49.446;8.754;2023-03-14T09:06:08;14.20;64.10
37910;DHT22;23741;49.446;8.754;2023-03-14T09:08:10;14.20;64.00
37910;DHT22;23741;49.446;8.754;2023-03-14T09:10:12;14.20;64.00
37910;DHT22;23741;49.446;8.754;2023-03-14T09:12:13;14.30;64.10
37910;DHT22;23741;49.446;8.754;2023-03-14T09:14:15;14.30;64.10
37910;DHT22;23741;49.446;8.754;2023-03-14T09:16:17;14.20;64.00
37910;DHT22;23741;49.446;8.754;2023-03-14T09:18:19;14.30;64.20
37910;DHT22;23741;49.446;8.754;2023-03-14T09:20:21;14.20;64.10
37910;DHT22;23741;49.446;8.754;2023-03-14T09:22:22;14.20;64.10
37910;DHT22;23741;49.446;8.754;2023-03-14T09:24:24;14.20;64.90
37910;DHT22;23741;49.446;8.754;2023-03-14T09:26:26;14.20;64.10
37910;DHT22;23741;49.446;8.754;2023-03-14T09:28:28;14.20;64.20
37910;DHT22;23741;49.446;8.754;2023-03-14T09:30:29;14.20;64.20
37910;DHT22;23741;49.446;8.754;2023-03-14T09:32:31;14.20;64.20
37910;DHT22;23741;49.446;8.754;2023-03-14T09:34:33;14.20;64.30
37910;DHT22;23741;49.446;8.754;2023-03-14T09:36:37;14.30;64.30
37910;DHT22;23741;49.446;8.754;2023-03-14T09:38:41;14.20;64.30
37910;DHT22;23741;49.446;8.754;2023-03-14T09:40:42;14.20;64.20
37910;DHT22;23741;49.446;8.754;2023-03-14T09:42:44;14.20;64.30
37910;DHT22;23741;49.446;8.754;2023-03-14T09:45:02;14.20;64.30
37910;DHT22;23741;49.446;8.754;2023-03-14T09:47:09;14.20;64.40
37910;DHT22;23741;49.446;8.754;2023-03-14T09:49:13;14.20;64.40
37910;DHT22;23741;49.446;8.754;2023-03-14T09:51:17;14.20;64.50
37910;DHT22;23741;49.446;8.754;2023-03-14T09:53:32;14.20;64.40
37910;DHT22;23741;49.446;8.754;2023-03-14T09:55:37;14.20;64.50
37910;DHT22;23741;49.446;8.754;2023-03-14T09:57:40;14.20;64.40
37910;DHT22;23741;49.446;8.754;2023-03-14T09:59:43;14.20;64.60
37910;DHT22;23741;49.446;8.754;2023-03-14T10:01:45;14.20;64.50
37910;DHT22;23741;49.446;8.754;2023-03-14T10:03:47;14.20;64.70
37910;DHT22;23741;49.446;8.754;2023-03-14T10:05:49;14.20;64.70
37910;DHT22;23741;49.446;8.754;2023-03-14T10:07:51;14.10;64.80
37910;DHT22;23741;49.446;8.754;2023-03-14T10:09:52;14.20;64.70
37910;DHT22;23741;49.446;8.754;2023-03-14T10:11:55;14.20;64.50
37910;DHT22;23741;49.446;8.754;2023-03-14T10:16:05;14.20;64.60
37910;DHT22;23741;49.446;8.754;2023-03-14T10:18:11;14.20;64.70
37910;DHT22;23741;49.446;8.754;2023-03-14T10:22:34;14.20;64.80
37910;DHT22;23741;49.446;8.754;2023-03-14T10:24:36;14.20;64.70
37910;DHT22;23741;49.446;8.754;2023-03-14T10:26:38;14.10;64.60
37910;DHT22;23741;49.446;8.754;2023-03-14T10:30:45;14.10;64.90
37910;DHT22;23741;49.446;8.754;2023-03-14T10:32:47;14.10;64.90
37910;DHT22;23741;49.446;8.754;2023-03-14T10:37:17;14.10;65.00
37910;DHT22;23741;49.446;8.754;2023-03-14T10:39:24;14.10;65.00
37910;DHT22;23741;49.446;8.754;2023-03-14T10:41:30;14.10;65.00
37910;DHT22;23741;49.446;8.754;2023-03-14T10:43:33;14.10;64.90
37910;DHT22;23741;49.446;8.754;2023-03-14T10:47:38;14.10;65.00
37910;DHT22;23741;49.446;8.754;2023-03-14T10:49:49;14.10;64.90
37910;DHT22;23741;49.446;8.754;2023-03-14T10:51:51;14.10;65.00
37910;DHT22;23741;49.446;8.754;2023-03-14T10:54:00;14.10;65.10
37910;DHT22;23741;49.446;8.754;2023-03-14T10:56:02;14.10;65.10
37910;DHT22;23741;49.446;8.754;2023-03-14T10:58:04;14.10;65.10
37910;DHT22;23741;49.446;8.754;2023-03-14T11:00:09;14.00;65.10
37910;DHT22;23741;49.446;8.754;2023-03-14T11:04:45;14.00;65.10
37910;DHT22;23741;49.446;8.754;2023-03-14T11:08:57;14.00;65.60
37910;DHT22;23741;49.446;8.754;2023-03-14T11:11:19;14.00;65.70
37910;DHT22;23741;49.446;8.754;2023-03-14T11:15:35;13.90;65.60
37910;DHT22;23741;49.446;8.754;2023-03-14T11:17:43;13.90;66.40
37910;DHT22;23741;49.446;8.754;2023-03-14T11:26:46;13.90;65.80
37910;DHT22;23741;49.446;8.754;2023-03-14T11:28:50;13.90;65.70
37910;DHT22;23741;49.446;8.754;2023-03-14T11:33:15;13.80;66.10
37910;DHT22;23741;49.446;8.754;2023-03-14T11:39:24;13.80;66.20
37910;DHT22;23741;49.446;8.754;2023-03-14T11:41:35;13.70;66.20
37910;DHT22;23741;49.446;8.754;2023-03-14T11:43:39;13.70;66.30
37910;DHT22;23741;49.446;8.754;2023-03-14T11:45:44;13.70;65.90
37910;DHT22;23741;49.446;8.754;2023-03-14T11:47:48;13.70;66.10
37910;DHT22;23741;49.446;8.754;2023-03-14T11:49:58;13.70;66.30
37910;DHT22;23741;49.446;8.754;2023-03-14T11:52:03;13.70;66.20
37910;DHT22;23741;49.446;8.754;2023-03-14T11:54:16;13.70;66.50
37910;DHT22;23741;49.446;8.754;2023-03-14T11:56:23;13.70;67.20
37910;DHT22;23741;49.446;8.754;2023-03-14T11:58:27;13.60;66.80
37910;DHT22;23741;49.446;8.754;2023-03-14T12:00:30;13.60;66.80
37910;DHT22;23741;49.446;8.754;2023-03-14T12:06:50;13.60;66.70
37910;DHT22;23741;49.446;8.754;2023-03-14T12:08:53;13.60;67.00
37910;DHT22;23741;49.446;8.754;2023-03-14T12:10:58;13.60;67.20
37910;DHT22;23741;49.446;8.754;2023-03-14T12:13:01;13.60;66.90
37910;DHT22;23741;49.446;8.754;2023-03-14T12:15:04;13.60;66.70
37910;DHT22;23741;49.446;8.754;2023-03-14T12:17:07;13.50;66.50
37910;DHT22;23741;49.446;8.754;2023-03-14T12:21:20;13.50;66.40
37910;DHT22;23741;49.446;8.754;2023-03-14T12:23:23;13.50;66.60
37910;DHT22;23741;49.446;8.754;2023-03-14T12:25:27;13.50;66.60
37910;DHT22;23741;49.446;8.754;2023-03-14T12:29:56;13.40;66.50
37910;DHT22;23741;49.446;8.754;2023-03-14T12:32:09;13.40;66.60
37910;DHT22;23741;49.446;8.754;2023-03-14T12:36:20;13.40;66.40
37910;DHT22;23741;49.446;8.754;2023-03-14T12:40:41;13.40;66.40
37910;DHT22;23741;49.446;8.754;2023-03-14T12:43:03;13.40;66.20
37910;DHT22;23741;49.446;8.754;2023-03-14T12:49:18;13.40;66.40
37910;DHT22;23741;49.446;8.754;2023-03-14T12:51:20;13.40;66.30
37910;DHT22;23741;49.446;8.754;2023-03-14T12:55:41;13.30;66.20
37910;DHT22;23741;49.446;8.754;2023-03-14T12:57:49;13.30;66.20
37910;DHT22;23741;49.446;8.754;2023-03-14T12:59:56;13.30;66.00
37910;DHT22;23741;49.446;8.754;2023-03-14T13:04:28;13.30;65.70
37910;DHT22;23741;49.446;8.754;2023-03-14T13:06:51;13.30;65.70
37910;DHT22;23741;49.446;8.754;2023-03-14T13:09:06;13.20;65.50
37910;DHT22;23741;49.446;8.754;2023-03-14T13:11:21;13.20;65.50
37910;DHT22;23741;49.446;8.754;2023-03-14T13:15:59;13.20;65.40
37910;DHT22;23741;49.446;8.754;2023-03-14T13:18:15;13.10;65.30
37910;DHT22;23741;49.446;8.754;2023-03-14T13:20:28;13.10;65.20
37910;DHT22;23741;49.446;8.754;2023-03-14T13:22:32;13.00;65.10
37910;DHT22;23741;49.446;8.754;2023-03-14T13:24:34;13.00;65.10
37910;DHT22;23741;49.446;8.754;2023-03-14T13:26:40;12.90;65.00
37910;DHT22;23741;49.446;8.754;2023-03-14T13:28:43;12.90;65.10
37910;DHT22;23741;49.446;8.754;2023-03-14T13:30:49;12.90;65.20
37910;DHT22;23741;49.446;8.754;2023-03-14T13:32:52;12.80;65.20
37910;DHT22;23741;49.446;8.754;2023-03-14T13:34:57;12.80;65.30
37910;DHT22;23741;49.446;8.754;2023-03-14T13:37:00;12.80;65.40
37910;DHT22;23741;49.446;8.754;2023-03-14T13:39:01;12.80;65.40
37910;DHT22;23741;49.446;8.754;2023-03-14T13:41:04;12.80;65.20
37910;DHT22;23741;49.446;8.754;2023-03-14T13:45:27;12.70;64.90
37910;DHT22;23741;49.446;8.754;2023-03-14T13:47:29;12.70;64.60
37910;DHT22;23741;49.446;8.754;2023-03-14T13:49:32;12.70;64.50
37910;DHT22;23741;49.446;8.754;2023-03-14T13:51:38;12.70;64.40
37910;DHT22;23741;49.446;8.754;2023-03-14T13:53:47;12.70;64.70
37910;DHT22;23741;49.446;8.754;2023-03-14T13:55:50;12.70;64.80
37910;DHT22;23741;49.446;8.754;2023-03-14T13:57:54;12.70;64.80
37910;DHT22;23741;49.446;8.754;2023-03-14T14:00:00;12.80;64.80
37910;DHT22;23741;49.446;8.754;2023-03-14T14:02:10;12.80;64.70
37910;DHT22;23741;49.446;8.754;2023-03-14T14:04:15;12.80;64.20
37910;DHT22;23741;49.446;8.754;2023-03-14T14:08:22;12.80;65.00
37910;DHT22;23741;49.446;8.754;2023-03-14T14:10:25;12.80;64.40
37910;DHT22;23741;49.446;8.754;2023-03-14T14:12:38;12.80;64.20
37910;DHT22;23741;49.446;8.754;2023-03-14T14:14:42;12.80;64.00
37910;DHT22;23741;49.446;8.754;2023-03-14T14:16:45;12.80;63.40
37910;DHT22;23741;49.446;8.754;2023-03-14T14:18:48;12.80;63.00